Latest Weather Observations for Pallamana

IDS60801

Issued at 4:31 am CST Friday 18 August 2017 (issued every 30 minutes, with the page automatically refreshed every 10 minutes)

About weather observations | Map of weather stations | Latest weather observations for SA | Other Formats
Station Details ID: 024584 Name: PALLAMANA AERODROME Lat: -35.06 Lon: 139.23 Height: 45.0 m
Data from the previous 72 hours. | See also: Recent months at Pallamana
Date/Time
CST
Temp
°C
App
Temp
°C
Dew
Point
°C
Rel
Hum
%
Delta-T
°C
Wind Press
QNH
hPa
Press
MSL
hPa
Rain since
9am
mm
Dir  Spd
km/h
Gust
km/h
Spd
kts
Gust
kts
18/04:30am 9.2 3.5 3.1 65 2.6 W 22 32 12 17 1016.2 1016.2 7.0
18/04:00am 9.2 3.1 2.9 65 2.7 W 24 32 13 17 1015.9 1015.9 7.0
18/03:30am 8.7 3.2 3.9 72 2.1 W 22 32 12 17 1015.7 1015.7 7.0
18/03:00am 8.4 3.4 4.5 76 1.7 W 20 28 11 15 1015.5 1015.5 7.0
18/02:30am 8.4 3.5 4.0 74 1.9 W 19 28 10 15 1015.3 1015.3 7.0
18/02:00am 8.2 3.1 4.1 75 1.8 WNW 20 26 11 14 1015.1 1015.1 7.0
18/01:30am 8.4 2.8 3.5 71 2.1 W 22 32 12 17 1014.9 1014.9 7.0
18/01:00am 8.6 2.7 3.8 72 2.1 W 24 32 13 17 1014.5 1014.5 7.0
18/12:34am 8.9 2.5 5.1 77 1.7 WNW 28 48 15 26 1014.5 1014.5 7.0
18/12:30am 9.1 3.5 5.6 79 1.6 WNW 24 37 13 20 1014.5 1014.5 7.0
18/12:00am 8.8 3.9 5.2 78 1.6 W 20 32 11 17 1013.9 1013.9 6.8
 
Date/Time
CST
Temp
°C
App
Temp
°C
Dew
Point
°C
Rel
Hum
%
Delta-T
°C
Wind Press
QNH
hPa
Press
MSL
hPa
Rain since
9am
mm
Dir  Spd
km/h
Gust
km/h
Spd
kts
Gust
kts
17/11:30pm 9.3 3.5 4.6 72 2.1 WNW 24 43 13 23 1013.5 1013.5 6.8
17/11:00pm 8.8 4.0 5.7 81 1.4 W 20 28 11 15 1013.3 1013.3 6.8
17/10:59pm 8.8 3.6 5.7 81 1.4 W 22 28 12 15 1013.3 1013.3 6.8
17/10:42pm 8.7 2.8 5.8 82 1.3 WSW 26 50 14 27 1013.6 1013.6 6.6
17/10:40pm 8.9 3.8 5.8 81 1.4 WSW 22 39 12 21 1013.7 1013.7 6.4
17/10:30pm 9.2 4.4 4.7 73 2.0 W 19 26 10 14 1013.2 1013.2 5.2
17/10:00pm 9.2 3.2 5.2 76 1.8 W 26 39 14 21 1013.1 1013.1 5.2
17/09:30pm 9.2 2.3 4.5 72 2.1 W 30 52 16 28 1012.8 1012.8 4.8
17/09:00pm 8.9 1.5 4.1 72 2.1 W 32 52 17 28 1012.7 1012.7 4.8
17/08:49pm 9.9 3.5 5.3 73 2.1 W 28 52 15 28 1012.7 1012.7 4.8
17/08:47pm 10.5 4.8 5.0 69 2.5 WNW 24 41 13 22 1012.7 1012.7 4.6
17/08:30pm 10.3 5.2 4.2 66 2.7 WNW 20 32 11 17 1012.1 1012.1 4.4
17/08:00pm 10.6 4.1 4.6 66 2.7 W 28 46 15 25 1011.6 1011.6 4.4
17/07:30pm 11.6 4.5 3.8 59 3.5 WNW 30 43 16 23 1011.1 1011.2 4.4
17/07:00pm 11.8 3.7 3.2 55 3.8 WNW 35 54 19 29 1010.5 1010.6 4.4
17/06:54pm 11.9 4.4 3.3 55 3.8 WNW 32 54 17 29 1010.4 1010.5 4.4
17/06:30pm 11.7 4.3 3.9 59 3.5 WNW 32 46 17 25 1010.2 1010.3 4.4
17/06:00pm 11.6 5.8 4.3 61 3.3 WNW 24 37 13 20 1009.9 1010.0 4.4
17/05:30pm 11.9 5.3 4.2 59 3.5 WNW 28 46 15 25 1009.4 1009.5 4.4
17/05:29pm 11.8 5.2 4.3 60 3.4 WNW 28 46 15 25 1009.4 1009.5 4.4
17/05:00pm 11.4 5.4 5.1 65 2.9 WNW 26 39 14 21 1009.2 1009.3 4.4
17/04:33pm 11.8 4.3 4.6 61 3.3 W 33 57 18 31 1009.0 1009.1 4.4
17/04:30pm 11.8 4.6 4.8 62 3.2 W 32 48 17 26 1009.1 1009.2 4.4
17/04:13pm 11.6 5.1 6.3 70 2.5 W 30 48 16 26 1008.9 1009.0 4.4
17/04:00pm 10.5 2.1 7.4 81 1.5 W 41 61 22 33 1008.9 1009.0 4.4
17/03:54pm 10.6 2.6 7.3 80 1.6 W 39 61 21 33 1009.2 1009.3 4.4
17/03:50pm 11.8 4.9 6.3 69 2.6 W 32 57 17 31 1009.0 1009.1 3.2
17/03:30pm 12.7 7.1 5.4 61 3.4 WNW 24 39 13 21 1008.3 1008.4 3.2
17/03:00pm 11.0 5.5 7.7 80 1.6 WNW 26 44 14 24 1008.4 1008.5 3.2
17/02:57pm 10.6 4.4 7.7 82 1.4 WNW 30 44 16 24 1008.7 1008.8 3.2
17/02:36pm 9.5 0.0 6.7 83 1.3 WSW 46 69 25 37 1008.5 1008.6 2.2
17/02:31pm 9.6 -0.3 6.4 80 1.5 W 48 70 26 38 1008.3 1008.4 1.8
17/02:30pm 9.8 -0.3 5.9 77 1.8 W 48 70 26 38 1008.3 1008.4 1.4
17/02:26pm 11.4 1.8 4.6 63 3.1 W 44 70 24 38 1008.1 1008.2 1.4
17/02:00pm 15.4 6.4 4.3 47 5.2 WNW 41 59 22 32 1007.2 1007.3 1.4
17/01:33pm 14.8 6.8 5.6 54 4.4 NW 37 56 20 30 1007.3 1007.4 1.4
17/01:30pm 15.4 7.4 5.6 52 4.7 NW 37 54 20 29 1007.2 1007.3 1.4
17/01:00pm 14.9 7.9 6.0 55 4.3 WNW 32 50 17 27 1007.5 1007.6 1.4
17/12:54pm 14.6 7.6 5.8 55 4.2 WNW 32 50 17 27 1007.5 1007.6 1.4
17/12:30pm 14.6 8.9 6.6 58 3.9 NW 26 41 14 22 1007.8 1007.9 1.4
17/12:11pm 13.8 6.8 6.1 59 3.7 NW 32 50 17 27 1008.0 1008.1 1.4
17/12:00pm 15.0 8.1 6.4 56 4.2 WNW 32 44 17 24 1008.0 1008.1 1.4
17/11:47am 14.2 6.6 5.6 56 4.1 WNW 35 54 19 29 1008.1 1008.2 1.4
17/11:30am 14.8 7.3 6.1 56 4.2 NW 35 50 19 27 1008.1 1008.2 1.4
17/11:00am 14.6 8.6 7.1 60 3.7 NW 28 56 15 30 1008.1 1008.2 1.4
17/10:57am 14.5 8.6 7.4 62 3.5 NW 28 56 15 30 1008.0 1008.1 1.4
17/10:30am 11.4 7.3 8.8 84 1.3 WNW 20 30 11 16 1008.3 1008.4 1.4
17/10:09am 11.3 7.1 8.3 82 1.5 NW 20 35 11 19 1008.3 1008.4 1.2
17/10:00am 11.1 7.2 8.7 85 1.2 NW 19 30 10 16 1008.4 1008.5 1.2
17/09:47am 11.5 5.7 7.8 78 1.8 WNW 28 41 15 22 1008.6 1008.7 0.6
17/09:30am 13.6 6.7 6.3 61 3.5 NW 32 43 17 23 1008.1 1008.2 0.0
17/09:13am 13.6 7.5 6.6 62 3.4 WNW 28 50 15 27 1008.1 1008.2 0.0
17/09:00am 13.1 8.0 7.6 69 2.7 WNW 24 35 13 19 1008.1 1008.2 4.4
17/08:30am 12.9 8.2 7.8 71 2.5 WNW 22 41 12 22 1007.8 1007.9 4.4
17/08:00am 12.3 7.6 7.6 73 2.3 WNW 22 39 12 21 1007.5 1007.6 4.4
17/07:30am 11.6 7.4 8.1 79 1.7 WNW 20 30 11 16 1007.3 1007.4 4.4
17/07:00am 10.0 7.0 7.7 86 1.1 NW 13 17 7 9 1007.0 1007.1 4.4
17/06:30am 10.7 7.1 8.3 85 1.2 NW 17 28 9 15 1006.8 1006.9 4.4
17/06:00am 10.6 6.7 8.6 87 1.0 WNW 19 24 10 13 1006.5 1006.6 4.2
17/05:50am 10.7 7.6 8.9 89 0.9 WNW 15 20 8 11 1006.5 1006.6 4.2
17/05:32am 11.0 6.9 8.8 86 1.1 W 20 28 11 15 1006.6 1006.7 3.8
17/05:30am 11.1 7.0 8.7 85 1.2 W 20 28 11 15 1006.6 1006.7 3.6
17/05:18am 11.0 7.8 8.4 84 1.3 WNW 15 26 8 14 1006.2 1006.3 3.0
17/05:03am 11.0 5.7 8.4 84 1.3 WNW 26 39 14 21 1006.0 1006.1 3.0
17/05:00am 11.2 5.4 7.9 80 1.6 WNW 28 39 15 21 1006.0 1006.1 2.8
17/04:30am 10.6 5.9 7.7 82 1.4 NW 22 35 12 19 1005.7 1005.8 2.6
17/04:00am 10.7 5.6 7.6 81 1.5 NW 24 39 13 21 1005.8 1005.9 2.4
17/03:30am 10.1 5.9 8.3 88 0.9 NNW 20 28 11 15 1006.0 1006.1 2.4
17/03:00am 10.2 5.5 7.9 86 1.1 NNW 22 30 12 16 1006.0 1006.1 2.2
17/02:30am 11.1 5.8 8.5 84 1.3 NW 26 33 14 18 1006.4 1006.5 2.0
17/02:00am 11.2 5.8 8.1 81 1.5 NW 26 35 14 19 1006.3 1006.4 2.0
17/01:30am 11.0 6.3 7.7 80 1.6 NW 22 32 12 17 1006.5 1006.6 2.0
17/01:00am 11.0 4.9 8.1 82 1.4 NW 30 41 16 22 1006.8 1006.9 2.0
17/12:30am 11.3 5.9 8.0 80 1.6 NW 26 37 14 20 1007.0 1007.1 1.8
17/12:00am 11.5 6.6 8.5 82 1.5 WNW 24 32 13 17 1007.3 1007.4 1.8
 
Date/Time
CST
Temp
°C
App
Temp
°C
Dew
Point
°C
Rel
Hum
%
Delta-T
°C
Wind Press
QNH
hPa
Press
MSL
hPa
Rain since
9am
mm
Dir  Spd
km/h
Gust
km/h
Spd
kts
Gust
kts
16/11:30pm 11.8 6.2 8.6 81 1.6 WNW 28 39 15 21 1007.5 1007.6 1.8
16/11:00pm 12.0 7.2 8.8 81 1.6 WNW 24 39 13 21 1007.5 1007.6 1.6
16/10:30pm 12.2 7.8 8.8 80 1.7 WNW 22 37 12 20 1008.0 1008.1 1.4
16/10:00pm 11.9 7.1 8.7 81 1.6 WNW 24 39 13 21 1008.2 1008.3 1.0
16/09:30pm 12.5 9.2 9.4 81 1.6 NW 17 24 9 13 1008.3 1008.4 0.6
16/09:00pm 12.4 9.0 9.2 81 1.6 WNW 17 22 9 12 1007.9 1008.0 0.6
16/08:30pm 11.8 7.5 9.4 85 1.2 W 22 37 12 20 1007.5 1007.6 0.6
16/08:00pm 12.3 8.1 8.3 76 2.0 WNW 20 30 11 16 1007.4 1007.5 0.2
16/07:30pm 12.4 7.2 8.8 79 1.8 WNW 26 48 14 26 1007.3 1007.4 0.2
16/07:21pm 12.3 6.0 8.9 80 1.7 WNW 32 50 17 27 1007.1 1007.2 0.2
16/07:00pm 12.9 7.6 8.5 74 2.2 WNW 26 41 14 22 1006.8 1006.9 0.0
16/06:30pm 14.2 8.7 6.1 58 3.9 WNW 24 35 13 19 1006.1 1006.2 0.0
16/06:14pm 14.5 8.3 6.2 57 4.0 WNW 28 46 15 25 1005.9 1006.0 0.0
16/06:00pm 14.4 8.6 6.3 58 3.9 WNW 26 41 14 22 1005.9 1006.0 0.0
16/05:30pm 14.5 7.9 6.2 57 4.0 WNW 30 44 16 24 1005.9 1006.0 0.0
16/05:00pm 15.0 8.9 6.4 56 4.2 WNW 28 48 15 26 1005.7 1005.8 0.0
16/04:51pm 15.2 9.0 6.1 54 4.4 WNW 28 48 15 26 1005.7 1005.8 0.0
16/04:30pm 15.4 8.8 5.9 53 4.6 WNW 30 43 16 23 1005.9 1006.0 0.0
16/04:00pm 16.0 9.0 5.9 51 4.9 WNW 32 44 17 24 1005.6 1005.7 0.0
16/03:31pm 16.2 8.5 5.4 48 5.2 WNW 35 54 19 29 1005.7 1005.8 0.0
16/03:30pm 16.1 8.0 5.2 48 5.2 WNW 37 54 20 29 1005.7 1005.8 0.0
16/03:16pm 16.3 8.2 5.3 48 5.3 WNW 37 56 20 30 1005.8 1005.9 0.0
16/03:00pm 16.3 8.2 5.3 48 5.3 WNW 37 52 20 28 1005.7 1005.8 0.0
16/02:36pm 16.4 7.7 4.0 43 5.8 WNW 39 57 21 31 1005.6 1005.7 0.0
16/02:30pm 16.4 7.8 4.9 46 5.5 WNW 39 54 21 29 1005.6 1005.7 0.0
16/02:05pm 16.7 8.9 4.7 45 5.7 WNW 35 54 19 29 1005.5 1005.6 0.0
16/02:00pm 16.5 7.4 4.2 44 5.8 WNW 41 57 22 31 1005.5 1005.6 0.0
16/01:35pm 16.6 8.7 4.6 45 5.7 WNW 35 54 19 29 1005.6 1005.7 0.0
16/01:30pm 16.3 7.9 3.9 43 5.8 WNW 37 54 20 29 1005.6 1005.7 0.0
16/01:00pm 16.1 7.0 4.1 45 5.6 WNW 41 61 22 33 1005.5 1005.6 0.0
16/12:39pm 16.3 7.7 4.7 46 5.5 WNW 39 57 21 31 1005.8 1005.9 0.0
16/12:30pm 16.2 7.9 5.9 50 5.0 WNW 39 54 21 29 1005.9 1006.0 0.0
16/12:00pm 15.9 8.4 6.3 53 4.7 WNW 35 57 19 31 1006.1 1006.2 0.0
16/11:49am 16.0 8.6 6.9 54 4.5 WNW 35 54 19 29 1006.0 1006.1 0.0
16/11:30am 16.0 8.0 5.9 51 4.9 WNW 37 54 20 29 1006.0 1006.1 0.0
16/11:28am 15.9 8.2 5.5 50 5.0 WNW 35 54 19 29 1006.0 1006.1 0.0
16/11:00am 15.5 7.6 6.0 53 4.6 WNW 37 50 20 27 1006.1 1006.2 0.0
16/10:41am 15.3 7.6 5.5 52 4.7 WNW 35 57 19 31 1006.0 1006.1 0.0
16/10:30am 15.2 7.2 5.9 54 4.5 WNW 37 54 20 29 1006.0 1006.1 0.0
16/10:01am 14.8 7.6 6.1 56 4.2 WNW 33 54 18 29 1005.7 1005.8 0.0
16/10:00am 14.8 7.6 6.1 56 4.2 WNW 33 48 18 26 1005.8 1005.9 0.0
16/09:30am 14.4 6.8 5.8 56 4.1 WNW 35 57 19 31 1005.8 1005.9 0.0
16/09:05am 14.2 6.7 6.3 59 3.8 WNW 35 54 19 29 1005.6 1005.7 0.0
16/09:00am 14.2 7.1 6.6 60 3.7 WNW 33 48 18 26 1005.6 1005.7 4.2
16/08:30am 13.7 7.3 6.9 63 3.3 WNW 30 44 16 24 1005.1 1005.2 4.2
16/08:15am 13.4 6.9 6.6 63 3.3 WNW 30 48 16 26 1005.0 1005.1 4.2
16/08:00am 13.0 7.3 6.8 66 3.0 WNW 26 39 14 21 1005.0 1005.1 4.2
16/07:51am 12.8 6.7 6.6 66 3.0 WNW 28 46 15 25 1004.9 1005.0 4.2
16/07:30am 12.4 6.6 6.3 66 2.9 WNW 26 41 14 22 1004.5 1004.6 4.2
16/07:00am 12.0 5.7 5.8 66 2.9 WNW 28 37 15 20 1004.1 1004.2 4.2
16/06:30am 12.1 5.4 5.7 65 3.0 WNW 30 44 16 24 1003.8 1003.9 4.2
16/06:00am 12.0 5.8 6.1 67 2.8 WNW 28 41 15 22 1003.6 1003.7 4.2
16/05:30am 11.8 6.1 6.6 70 2.5 W 26 37 14 20 1003.7 1003.8 4.2
16/05:00am 11.8 6.5 6.8 71 2.4 WNW 24 33 13 18 1003.4 1003.5 4.2
16/04:38am 12.1 5.0 5.7 65 3.0 W 32 50 17 27 1003.0 1003.1 4.2
16/04:30am 12.7 6.5 6.0 63 3.2 WNW 28 39 15 21 1003.1 1003.2 4.2
16/04:00am 12.5 5.5 6.0 64 3.1 WNW 32 50 17 27 1002.6 1002.6 4.2
16/03:30am 12.9 5.5 5.2 59 3.6 WNW 33 52 18 28 1002.1 1002.1 4.2
16/03:02am 12.9 5.7 5.7 61 3.4 WNW 33 52 18 28 1001.9 1001.9 4.2
16/03:00am 13.0 5.4 5.6 61 3.5 WNW 35 52 19 28 1001.8 1001.8 4.2
16/02:30am 13.1 4.9 4.9 57 3.8 WNW 37 56 20 30 1002.0 1002.0 4.2
16/02:00am 12.9 5.4 6.5 65 3.1 WNW 35 56 19 30 1001.9 1001.9 4.2
16/01:30am 13.2 4.8 5.8 61 3.5 WNW 39 57 21 31 1001.6 1001.6 4.2
16/01:00am 13.5 4.2 5.2 57 3.9 WNW 43 61 23 33 1001.8 1001.8 4.2
16/12:30am 13.5 5.6 6.2 61 3.5 WNW 37 61 20 33 1001.9 1001.9 4.2
16/12:22am 13.7 6.1 6.0 59 3.7 WNW 35 61 19 33 1002.0 1002.0 4.2
16/12:00am 13.3 6.5 6.9 65 3.1 WNW 32 48 17 26 1001.8 1001.8 4.2
 
Date/Time
CST
Temp
°C
App
Temp
°C
Dew
Point
°C
Rel
Hum
%
Delta-T
°C
Wind Press
QNH
hPa
Press
MSL
hPa
Rain since
9am
mm
Dir  Spd
km/h
Gust
km/h
Spd
kts
Gust
kts
15/11:47pm 13.0 7.1 7.5 69 2.7 WNW 28 48 15 26 1001.9 1001.9 4.2
15/11:30pm 11.7 6.9 7.4 75 2.1 NW 22 32 12 17 1002.0 1002.0 4.2
15/11:23pm 11.7 5.9 7.8 77 1.9 WNW 28 43 15 23 1002.2 1002.2 4.2
15/11:18pm 12.1 5.3 7.8 75 2.1 WNW 33 52 18 28 1002.1 1002.1 4.2
15/11:05pm 12.7 5.1 9.2 79 1.8 WNW 39 56 21 30 1002.4 1002.4 3.8
15/11:01pm 14.2 7.1 8.2 67 3.0 WNW 35 54 19 29 1002.1 1002.1 3.0
15/11:00pm 14.4 7.6 7.8 64 3.3 WNW 33 48 18 26 1002.1 1002.1 3.0
15/10:33pm 14.7 7.9 7.7 63 3.5 WNW 33 52 18 28 1001.6 1001.6 3.0
15/10:30pm 14.6 7.9 8.3 66 3.2 WNW 33 50 18 27 1001.6 1001.6 3.0
15/10:23pm 14.8 8.8 8.5 66 3.2 WNW 30 48 16 26 1001.7 1001.7 3.0
15/10:00pm 14.6 10.0 9.6 72 2.6 W 24 41 13 22 1001.8 1001.8 3.0
15/09:40pm 14.6 8.8 9.4 71 2.7 WNW 30 48 16 26 1001.8 1001.8 3.0
15/09:30pm 14.7 8.0 9.7 72 2.6 WNW 35 50 19 27 1001.7 1001.7 3.0
15/09:00pm 15.0 8.3 9.6 70 2.8 NW 35 59 19 32 1001.9 1001.9 3.0
15/08:40pm 14.9 8.9 10.1 73 2.5 NW 32 50 17 27 1001.7 1001.7 3.0
15/08:30pm 15.1 8.6 10.2 72 2.6 NW 35 46 19 25 1001.6 1001.6 3.0
15/08:00pm 15.2 9.0 9.9 70 2.8 NW 33 48 18 26 1001.5 1001.5 3.0
15/07:30pm 14.6 9.2 10.8 78 2.0 NW 30 54 16 29 1001.6 1001.6 3.0
15/07:08pm 15.5 9.6 10.4 71 2.7 NW 32 52 17 28 1001.7 1001.7 3.0
15/07:00pm 15.9 9.9 10.0 68 3.1 NW 32 48 17 26 1001.6 1001.6 3.0
15/06:30pm 15.9 10.4 10.7 71 2.8 NW 30 48 16 26 1001.4 1001.4 3.0
15/06:29pm 15.9 10.4 10.5 70 2.9 NW 30 48 16 26 1001.4 1001.4 3.0
15/06:00pm 15.9 9.4 10.5 70 2.9 NW 35 52 19 28 1001.3 1001.3 3.0
15/05:53pm 15.6 10.6 11.1 74 2.4 NW 28 50 15 27 1001.4 1001.4 3.0
15/05:30pm 15.0 11.5 12.1 83 1.6 NW 22 28 12 15 1001.0 1001.0 2.8
15/05:00pm 15.3 11.4 12.2 82 1.7 WNW 24 35 13 19 1001.9 1001.9 2.4
15/04:53pm 14.9 12.2 12.9 88 1.1 WNW 19 28 10 15 1002.0 1002.0 2.4
15/04:37pm 14.9 10.9 12.9 88 1.1 W 26 39 14 21 1002.2 1002.2 2.0
15/04:30pm 15.4 12.6 13.3 87 1.2 W 20 32 11 17 1002.0 1002.0 1.6
15/04:00pm 16.2 11.6 12.4 78 2.1 NW 28 46 15 25 1001.1 1001.1 1.0
15/03:51pm 16.1 11.6 12.7 80 1.9 NW 28 46 15 25 1001.2 1001.2 1.0
15/03:30pm 16.0 11.5 12.6 80 1.9 NW 28 41 15 22 1001.5 1001.5 0.6
15/03:00pm 16.2 10.9 12.4 78 2.1 NW 32 50 17 27 1001.9 1001.9 0.4
15/02:48pm 16.6 10.7 12.3 76 2.4 NW 35 54 19 29 1002.0 1002.0 0.4
15/02:30pm 17.1 12.6 12.6 75 2.5 NW 28 41 15 22 1002.1 1002.1 0.2
15/02:00pm 17.3 13.2 12.7 74 2.6 NW 26 41 14 22 1002.3 1002.3 0.2
15/01:30pm 17.3 12.9 13.0 76 2.4 NW 28 43 15 23 1002.6 1002.6 0.2
15/01:00pm 17.5 13.9 13.1 75 2.5 NW 24 35 13 19 1003.4 1003.5 0.2
15/12:30pm 17.1 11.9 12.8 76 2.4 NNW 32 44 17 24 1003.9 1004.0 0.2
15/12:00pm 17.5 13.9 12.9 74 2.6 NNW 24 37 13 20 1004.5 1004.6 0.2
15/11:30am 17.7 13.2 12.7 72 2.8 NNW 28 41 15 22 1005.0 1005.1 0.2
15/11:00am 17.7 13.4 13.1 74 2.6 NW 28 39 15 21 1005.6 1005.7 0.2
15/10:30am 17.4 11.7 12.9 75 2.5 NW 35 54 19 29 1006.0 1006.1 0.2
15/10:01am 17.3 12.9 12.8 75 2.5 NW 28 46 15 25 1006.3 1006.4 0.2
15/10:00am 17.5 13.2 13.1 75 2.5 NW 28 41 15 22 1006.3 1006.4 0.2
15/09:30am 16.7 12.7 12.9 78 2.1 NW 26 35 14 19 1006.5 1006.6 0.2
15/09:00am 16.7 12.1 12.2 75 2.5 NW 28 41 15 22 1007.1 1007.2 0.4
15/08:49am 17.1 12.4 12.0 72 2.8 NW 28 48 15 26 1007.1 1007.2 0.4
15/08:30am 16.8 13.3 12.3 75 2.5 NW 22 30 12 16 1006.8 1006.9 0.4
15/08:00am 16.7 13.8 12.8 78 2.2 NNW 20 37 11 20 1007.1 1007.2 0.4
15/07:30am 16.2 14.0 13.2 82 1.7 NNW 17 26 9 14 1007.9 1008.0 0.4
15/07:00am 16.3 14.1 13.3 82 1.7 NW 17 24 9 13 1008.0 1008.1 0.4
15/06:30am 16.4 13.4 13.6 83 1.6 WNW 22 30 12 16 1008.2 1008.3 0.2
15/06:00am 16.7 13.2 13.5 81 1.8 WNW 24 35 13 19 1007.8 1007.9 0.0
15/05:30am 17.1 13.6 13.4 79 2.1 WNW 24 33 13 18 1007.4 1007.5 0.0
15/05:00am 17.3 13.0 13.2 77 2.3 WNW 28 43 15 23 1007.3 1007.4 0.0

Other Formats:

Comma delimited format used in spreadsheet applications
http://www.bom.gov.au/fwo/IDS60801/IDS60801.95818.axf

JavaScript Object Notation format (JSON) in row-major order
http://www.bom.gov.au/fwo/IDS60801/IDS60801.95818.json